createdAt,value
2023-04-15T00:00:00.417Z,98860
2023-04-15T00:01:00.439Z,98850
2023-04-15T00:02:00.573Z,98850
2023-04-15T00:03:00.524Z,98850
2023-04-15T00:04:00.521Z,98850
2023-04-15T00:05:00.453Z,98850
2023-04-15T00:06:00.591Z,98850
2023-04-15T00:07:00.397Z,98840
2023-04-15T00:08:00.423Z,98840
2023-04-15T00:09:00.708Z,98840
2023-04-15T00:10:00.665Z,98830
2023-04-15T00:11:00.413Z,98840
2023-04-15T00:12:00.397Z,98840
2023-04-15T00:13:00.422Z,98840
2023-04-15T00:14:00.405Z,98840
2023-04-15T00:15:00.407Z,98840
2023-04-15T00:16:00.594Z,98850
2023-04-15T00:17:00.503Z,98850
2023-04-15T00:18:00.488Z,98840
2023-04-15T00:19:00.728Z,98850
2023-04-15T00:20:00.481Z,98850
2023-04-15T00:21:00.844Z,98840
2023-04-15T00:22:00.406Z,98840
2023-04-15T00:23:01.418Z,98840
2023-04-15T00:24:00.388Z,98840
2023-04-15T00:25:00.451Z,98840
2023-04-15T00:26:00.412Z,98830
2023-04-15T00:27:00.463Z,98850
2023-04-15T00:28:00.406Z,98840
2023-04-15T00:29:00.572Z,98840
2023-04-15T00:30:00.416Z,98840
2023-04-15T00:31:00.476Z,98850
2023-04-15T00:32:00.452Z,98840
2023-04-15T00:33:00.716Z,98840
2023-04-15T00:34:00.401Z,98840
2023-04-15T00:35:00.389Z,98850
2023-04-15T00:36:00.397Z,98850
2023-04-15T00:37:00.402Z,98840
2023-04-15T00:38:00.434Z,98840
2023-04-15T00:39:00.735Z,98830
2023-04-15T00:40:00.409Z,98860
2023-04-15T00:41:01.710Z,98840
2023-04-15T00:42:01.066Z,98840
2023-04-15T00:43:01.041Z,98840
2023-04-15T00:44:00.916Z,98850
2023-04-15T00:45:00.426Z,98840
2023-04-15T00:46:00.583Z,98850
2023-04-15T00:47:00.478Z,98850
2023-04-15T00:48:00.804Z,98840
2023-04-15T00:49:02.762Z,98850
2023-04-15T00:50:00.476Z,98850
2023-04-15T00:51:00.416Z,98850
2023-04-15T00:52:00.412Z,98850
2023-04-15T00:53:00.408Z,98850
2023-04-15T00:54:01.215Z,98850
2023-04-15T00:55:00.812Z,98850
2023-04-15T00:56:00.427Z,98860
2023-04-15T00:57:00.412Z,98860
2023-04-15T00:58:00.455Z,98870
2023-04-15T00:59:00.853Z,98850
2023-04-15T01:00:00.694Z,98860
2023-04-15T01:01:00.437Z,98860
2023-04-15T01:02:00.630Z,98860
2023-04-15T01:03:00.744Z,98860
2023-04-15T01:04:00.945Z,98870
2023-04-15T01:05:01.091Z,98860
2023-04-15T01:06:03.395Z,98860
2023-04-15T01:07:00.396Z,98860
2023-04-15T01:08:00.475Z,98850
2023-04-15T01:09:01.100Z,98860
2023-04-15T01:10:01.357Z,98860
2023-04-15T01:11:01.354Z,98860
2023-04-15T01:12:00.422Z,98860
2023-04-15T01:13:01.734Z,98850
2023-04-15T01:14:01.535Z,98850
2023-04-15T01:15:01.018Z,98860
2023-04-15T01:16:01.019Z,98850
2023-04-15T01:17:00.773Z,98850
2023-04-15T01:18:01.459Z,98850
2023-04-15T01:19:01.134Z,98860
2023-04-15T01:20:00.643Z,98850
2023-04-15T01:21:00.998Z,98840
2023-04-15T01:22:01.408Z,98840
2023-04-15T01:23:01.016Z,98850
2023-04-15T01:24:01.369Z,98840
2023-04-15T01:25:05.496Z,98850
2023-04-15T01:26:00.963Z,98840
2023-04-15T01:27:00.496Z,98850
2023-04-15T01:28:00.686Z,98860
2023-04-15T01:29:00.781Z,98850
2023-04-15T01:30:00.475Z,98850
2023-04-15T01:31:09.564Z,98850
2023-04-15T01:32:00.417Z,98850
2023-04-15T01:33:00.569Z,98850
2023-04-15T01:34:00.636Z,98850
2023-04-15T01:35:00.759Z,98850
2023-04-15T01:36:00.415Z,98850
2023-04-15T01:37:00.394Z,98860
2023-04-15T01:38:05.383Z,98860
2023-04-15T01:39:00.997Z,98860
2023-04-15T01:40:00.491Z,98870
2023-04-15T01:41:00.556Z,98850
2023-04-15T01:42:00.412Z,98860
2023-04-15T01:43:01.068Z,98850
2023-04-15T01:44:00.402Z,98860
2023-04-15T01:45:00.441Z,98860
2023-04-15T01:46:00.454Z,98840
2023-04-15T01:47:00.508Z,98860
2023-04-15T01:48:00.503Z,98850
2023-04-15T01:49:00.608Z,98860
2023-04-15T01:50:00.449Z,98850
2023-04-15T01:51:00.469Z,98860
2023-04-15T01:52:00.416Z,98850
2023-04-15T01:53:00.410Z,98850
2023-04-15T01:54:00.412Z,98850
2023-04-15T01:55:00.419Z,98850
2023-04-15T01:56:00.407Z,98850
2023-04-15T01:57:00.432Z,98850
2023-04-15T01:58:00.407Z,98850
2023-04-15T01:59:00.569Z,98850
2023-04-15T02:00:00.433Z,98850
2023-04-15T02:01:00.437Z,98850
2023-04-15T02:02:00.582Z,98850
2023-04-15T02:03:00.557Z,98850
2023-04-15T02:04:00.444Z,98860
2023-04-15T02:05:00.437Z,98860
2023-04-15T02:06:00.418Z,98860
2023-04-15T02:07:00.448Z,98860
2023-04-15T02:08:00.438Z,98860
2023-04-15T02:09:00.772Z,98850
2023-04-15T02:10:00.410Z,98860
2023-04-15T02:11:00.426Z,98850
2023-04-15T02:12:00.439Z,98860
2023-04-15T02:13:00.473Z,98850
2023-04-15T02:14:00.398Z,98860
2023-04-15T02:15:00.678Z,98860
2023-04-15T02:16:00.518Z,98860
2023-04-15T02:17:00.463Z,98860
2023-04-15T02:18:00.497Z,98860
2023-04-15T02:19:00.728Z,98860
2023-04-15T02:20:00.461Z,98870
2023-04-15T02:21:00.541Z,98860
2023-04-15T02:22:00.501Z,98870
2023-04-15T02:23:00.409Z,98870
2023-04-15T02:24:00.413Z,98870
2023-04-15T02:25:00.430Z,98860
2023-04-15T02:26:00.407Z,98860
2023-04-15T02:27:00.391Z,98860
2023-04-15T02:28:00.409Z,98870
2023-04-15T02:29:00.704Z,98860
2023-04-15T02:30:00.514Z,98860
2023-04-15T02:31:04.928Z,98870
2023-04-15T02:32:00.501Z,98870
2023-04-15T02:33:00.647Z,98860
2023-04-15T02:34:00.424Z,98870
2023-04-15T02:35:02.277Z,98870
2023-04-15T02:36:00.406Z,98870
2023-04-15T02:37:00.441Z,98880
2023-04-15T02:38:00.420Z,98870
2023-04-15T02:39:02.635Z,98870
2023-04-15T02:40:00.408Z,98870
2023-04-15T02:41:00.442Z,98870
2023-04-15T02:42:00.476Z,98870
2023-04-15T02:43:00.406Z,98880
2023-04-15T02:44:00.424Z,98880
2023-04-15T02:45:00.399Z,98870
2023-04-15T02:46:00.532Z,98870
2023-04-15T02:47:00.410Z,98870
2023-04-15T02:48:00.441Z,98870
2023-04-15T02:49:00.661Z,98870
2023-04-15T02:50:02.744Z,98870
2023-04-15T02:51:11.388Z,98870
2023-04-15T02:52:00.409Z,98870
2023-04-15T02:53:00.497Z,98870
2023-04-15T02:54:00.439Z,98870
2023-04-15T02:55:00.473Z,98870
2023-04-15T02:56:00.392Z,98870
2023-04-15T02:57:00.432Z,98870
2023-04-15T02:58:00.406Z,98870
2023-04-15T02:59:00.611Z,98880
2023-04-15T03:00:00.407Z,98880
2023-04-15T03:01:00.445Z,98880
2023-04-15T03:02:00.412Z,98880
2023-04-15T03:03:03.345Z,98880
2023-04-15T03:04:00.623Z,98880
2023-04-15T03:05:00.484Z,98880
2023-04-15T03:06:00.437Z,98880
2023-04-15T03:07:00.924Z,98880
2023-04-15T03:08:00.429Z,98880
2023-04-15T03:09:00.712Z,98890
2023-04-15T03:10:00.406Z,98890
2023-04-15T03:11:00.436Z,98890
2023-04-15T03:12:00.580Z,98890
2023-04-15T03:13:00.463Z,98890
2023-04-15T03:14:00.392Z,98890
2023-04-15T03:15:00.455Z,98890
2023-04-15T03:16:00.436Z,98900
2023-04-15T03:17:00.442Z,98900
2023-04-15T03:18:00.421Z,98910
2023-04-15T03:19:00.680Z,98910
2023-04-15T03:20:01.271Z,98910
2023-04-15T03:21:00.418Z,98920
2023-04-15T03:22:00.443Z,98920
2023-04-15T03:23:00.407Z,98920
2023-04-15T03:24:00.418Z,98910
2023-04-15T03:25:00.409Z,98910
2023-04-15T03:26:01.932Z,98910
2023-04-15T03:27:00.410Z,98910
2023-04-15T03:28:00.540Z,98910
2023-04-15T03:29:00.749Z,98910
2023-04-15T03:30:00.457Z,98920
2023-04-15T03:31:00.595Z,98920
2023-04-15T03:32:00.437Z,98920
2023-04-15T03:33:00.477Z,98930
2023-04-15T03:34:00.412Z,98920
2023-04-15T03:35:00.440Z,98920
2023-04-15T03:36:00.411Z,98920
2023-04-15T03:37:00.478Z,98920
2023-04-15T03:38:00.409Z,98920
2023-04-15T03:39:00.601Z,98920
2023-04-15T03:40:00.815Z,98920
2023-04-15T03:41:00.404Z,98920
2023-04-15T03:42:00.581Z,98920
2023-04-15T03:43:00.392Z,98930
2023-04-15T03:44:00.416Z,98930
2023-04-15T03:45:00.486Z,98930
2023-04-15T03:46:02.012Z,98940
2023-04-15T03:47:00.576Z,98940
2023-04-15T03:48:11.387Z,98940
2023-04-15T03:49:01.110Z,98940
2023-04-15T03:50:00.416Z,98940
2023-04-15T03:51:00.414Z,98950
2023-04-15T03:52:00.432Z,98950
2023-04-15T03:53:00.422Z,98950
2023-04-15T03:54:00.435Z,98960
2023-04-15T03:55:00.485Z,98960
2023-04-15T03:56:00.614Z,98960
2023-04-15T03:57:00.411Z,98960
2023-04-15T03:58:00.398Z,98960
2023-04-15T03:59:00.696Z,98960
2023-04-15T04:00:00.459Z,98960
2023-04-15T04:01:00.412Z,98970
2023-04-15T04:02:00.520Z,98970
2023-04-15T04:03:00.651Z,98960
2023-04-15T04:04:00.470Z,98960
2023-04-15T04:05:00.439Z,98960
2023-04-15T04:06:00.523Z,98960
2023-04-15T04:07:00.429Z,98970
2023-04-15T04:08:00.402Z,98970
2023-04-15T04:09:00.721Z,98970
2023-04-15T04:10:01.591Z,98980
2023-04-15T04:11:00.412Z,98980
2023-04-15T04:12:00.464Z,98980
2023-04-15T04:13:00.415Z,98980
2023-04-15T04:14:00.407Z,98990
2023-04-15T04:15:00.401Z,98990
2023-04-15T04:16:00.496Z,99000
2023-04-15T04:17:00.488Z,99000
2023-04-15T04:18:00.651Z,98990
2023-04-15T04:19:00.663Z,98990
2023-04-15T04:20:00.412Z,98990
2023-04-15T04:21:00.613Z,98990
2023-04-15T04:22:00.440Z,98990
2023-04-15T04:23:00.408Z,98990
2023-04-15T04:24:00.440Z,98990
2023-04-15T04:25:00.396Z,98990
2023-04-15T04:26:00.426Z,98990
2023-04-15T04:27:00.405Z,98990
2023-04-15T04:28:00.433Z,98990
2023-04-15T04:29:00.639Z,98990
2023-04-15T04:30:00.750Z,99000
2023-04-15T04:31:00.569Z,99000
2023-04-15T04:32:00.472Z,99000
2023-04-15T04:33:00.617Z,99000
2023-04-15T04:34:00.552Z,99010
2023-04-15T04:35:00.415Z,99010
2023-04-15T04:36:00.498Z,99010
2023-04-15T04:37:00.408Z,99020
2023-04-15T04:38:00.414Z,99020
2023-04-15T04:39:00.716Z,99020
2023-04-15T04:40:00.416Z,99020
2023-04-15T04:41:00.449Z,99020
2023-04-15T04:42:00.427Z,99020
2023-04-15T04:43:00.570Z,99020
2023-04-15T04:44:00.400Z,99020
2023-04-15T04:45:00.428Z,99020
2023-04-15T04:46:00.481Z,99020
2023-04-15T04:47:00.391Z,99030
2023-04-15T04:48:00.557Z,99020
2023-04-15T04:49:00.524Z,99030
2023-04-15T04:50:00.458Z,99030
2023-04-15T04:51:00.716Z,99030
2023-04-15T04:52:00.411Z,99030
2023-04-15T04:53:00.704Z,99040
2023-04-15T04:54:02.436Z,99030
2023-04-15T04:55:00.422Z,99040
2023-04-15T04:56:00.418Z,99030
2023-04-15T04:57:00.401Z,99030
2023-04-15T04:58:00.429Z,99030
2023-04-15T04:59:00.747Z,99030
2023-04-15T05:00:00.937Z,99030
2023-04-15T05:01:00.644Z,99020
2023-04-15T05:02:00.542Z,99030
2023-04-15T05:03:00.617Z,99030
2023-04-15T05:04:00.672Z,99030
2023-04-15T05:05:00.488Z,99030
2023-04-15T05:06:00.396Z,99030
2023-04-15T05:07:00.421Z,99030
2023-04-15T05:08:00.395Z,99030
2023-04-15T05:09:00.636Z,99030
2023-04-15T05:10:00.433Z,99030
2023-04-15T05:11:00.801Z,99030
2023-04-15T05:12:00.466Z,99030
2023-04-15T05:13:00.569Z,99030
2023-04-15T05:14:00.400Z,99030
2023-04-15T05:15:00.410Z,99030
2023-04-15T05:16:00.450Z,99030
2023-04-15T05:17:00.440Z,99030
2023-04-15T05:18:00.481Z,99030
2023-04-15T05:19:00.702Z,99030
2023-04-15T05:20:01.477Z,99040
2023-04-15T05:21:01.457Z,99040
2023-04-15T05:22:00.427Z,99040
2023-04-15T05:23:00.503Z,99040
2023-04-15T05:24:00.473Z,99040
2023-04-15T05:25:00.460Z,99040
2023-04-15T05:26:00.411Z,99040
2023-04-15T05:27:00.398Z,99040
2023-04-15T05:28:00.384Z,99040
2023-04-15T05:29:00.648Z,99040
2023-04-15T05:30:00.501Z,99040
2023-04-15T05:31:00.551Z,99040
2023-04-15T05:32:00.409Z,99050
2023-04-15T05:33:00.437Z,99050
2023-04-15T05:34:00.616Z,99050
2023-04-15T05:35:00.414Z,99050
2023-04-15T05:36:00.420Z,99060
2023-04-15T05:37:00.415Z,99060
2023-04-15T05:38:00.426Z,99050
2023-04-15T05:39:00.862Z,99060
2023-04-15T05:40:00.652Z,99060
2023-04-15T05:41:00.517Z,99060
2023-04-15T05:42:00.404Z,99060
2023-04-15T05:43:00.397Z,99060
2023-04-15T05:44:00.414Z,99060
2023-04-15T05:45:00.427Z,99060
2023-04-15T05:46:00.435Z,99060
2023-04-15T05:47:00.401Z,99060
2023-04-15T05:48:00.436Z,99070
2023-04-15T05:49:00.781Z,99060
2023-04-15T05:50:00.404Z,99070
2023-04-15T05:51:00.497Z,99070
2023-04-15T05:52:00.421Z,99070
2023-04-15T05:53:00.431Z,99070
2023-04-15T05:54:00.517Z,99070
2023-04-15T05:55:00.394Z,99070
2023-04-15T05:56:00.403Z,99070
2023-04-15T05:57:00.418Z,99070
2023-04-15T05:58:00.391Z,99070
2023-04-15T05:59:00.601Z,99070
2023-04-15T06:00:00.443Z,99070
2023-04-15T06:01:01.344Z,99070
2023-04-15T06:02:00.516Z,99070
2023-04-15T06:03:00.636Z,99070
2023-04-15T06:04:00.515Z,99070
2023-04-15T06:05:00.550Z,99070
2023-04-15T06:06:00.408Z,99070
2023-04-15T06:07:00.407Z,99070
2023-04-15T06:08:00.426Z,99070
2023-04-15T06:09:00.712Z,99080
2023-04-15T06:10:00.407Z,99080
2023-04-15T06:11:00.481Z,99080
2023-04-15T06:12:00.688Z,99090
2023-04-15T06:13:00.471Z,99090
2023-04-15T06:14:00.408Z,99090
2023-04-15T06:15:00.702Z,99090
2023-04-15T06:16:00.437Z,99090
2023-04-15T06:17:00.409Z,99090
2023-04-15T06:18:00.460Z,99080
2023-04-15T06:19:00.573Z,99080
2023-04-15T06:20:00.495Z,99090
2023-04-15T06:21:00.541Z,99090
2023-04-15T06:22:00.640Z,99090
2023-04-15T06:23:00.395Z,99090
2023-04-15T06:24:00.528Z,99090
2023-04-15T06:25:00.479Z,99090
2023-04-15T06:26:00.752Z,99090
2023-04-15T06:27:00.408Z,99100
2023-04-15T06:28:00.394Z,99100
2023-04-15T06:29:00.693Z,99100
2023-04-15T06:30:00.481Z,99100
2023-04-15T06:31:00.487Z,99100
2023-04-15T06:32:00.551Z,99100
2023-04-15T06:33:00.527Z,99100
2023-04-15T06:34:00.412Z,99100
2023-04-15T06:35:00.551Z,99100
2023-04-15T06:36:00.893Z,99100
2023-04-15T06:37:00.415Z,99100
2023-04-15T06:38:00.440Z,99100
2023-04-15T06:39:00.554Z,99100
2023-04-15T06:40:00.435Z,99100
2023-04-15T06:41:00.457Z,99090
2023-04-15T06:42:00.523Z,99100
2023-04-15T06:43:00.404Z,99100
2023-04-15T06:44:00.447Z,99100
2023-04-15T06:45:00.598Z,99090
2023-04-15T06:46:00.662Z,99090
2023-04-15T06:47:00.407Z,99100
2023-04-15T06:48:00.700Z,99100
2023-04-15T06:49:00.697Z,99100
2023-04-15T06:50:00.412Z,99100
2023-04-15T06:51:00.513Z,99110
2023-04-15T06:52:00.680Z,99110
2023-04-15T06:53:00.500Z,99110
2023-04-15T06:54:00.597Z,99110
2023-04-15T06:55:00.575Z,99110
2023-04-15T06:56:00.392Z,99100
2023-04-15T06:57:00.426Z,99110
2023-04-15T06:58:00.459Z,99110
2023-04-15T06:59:00.648Z,99110
2023-04-15T07:00:00.592Z,99100
2023-04-15T07:01:00.565Z,99110
2023-04-15T07:02:00.619Z,99110
2023-04-15T07:03:00.471Z,99110
2023-04-15T07:04:00.612Z,99110
2023-04-15T07:05:00.390Z,99110
2023-04-15T07:06:00.424Z,99110
2023-04-15T07:07:00.389Z,99120
2023-04-15T07:08:00.445Z,99120
2023-04-15T07:09:00.986Z,99120
2023-04-15T07:10:00.419Z,99120
2023-04-15T07:11:00.778Z,99130
2023-04-15T07:12:00.455Z,99130
2023-04-15T07:13:00.418Z,99130
2023-04-15T07:14:00.403Z,99130
2023-04-15T07:15:00.498Z,99130
2023-04-15T07:16:00.402Z,99130
2023-04-15T07:17:00.469Z,99130
2023-04-15T07:18:00.452Z,99120
2023-04-15T07:19:00.759Z,99120
2023-04-15T07:20:00.434Z,99120
2023-04-15T07:21:00.417Z,99130
2023-04-15T07:22:00.418Z,99120
2023-04-15T07:23:00.448Z,99120
2023-04-15T07:24:00.415Z,99120
2023-04-15T07:25:00.397Z,99120
2023-04-15T07:26:00.416Z,99130
2023-04-15T07:27:01.202Z,99120
2023-04-15T07:28:00.416Z,99120
2023-04-15T07:29:00.661Z,99130
2023-04-15T07:30:00.986Z,99130
2023-04-15T07:31:00.421Z,99130
2023-04-15T07:32:00.444Z,99140
2023-04-15T07:33:00.885Z,99140
2023-04-15T07:34:00.436Z,99140
2023-04-15T07:35:00.441Z,99140
2023-04-15T07:36:00.409Z,99140
2023-04-15T07:37:00.385Z,99140
2023-04-15T07:38:00.417Z,99140
2023-04-15T07:39:00.583Z,99140
2023-04-15T07:40:00.733Z,99140
2023-04-15T07:41:00.430Z,99140
2023-04-15T07:42:00.641Z,99140
2023-04-15T07:43:00.482Z,99140
2023-04-15T07:44:00.430Z,99140
2023-04-15T07:45:00.485Z,99140
2023-04-15T07:46:00.471Z,99140
2023-04-15T07:47:01.897Z,99140
2023-04-15T07:48:01.732Z,99140
2023-04-15T07:49:00.968Z,99140
2023-04-15T07:50:00.423Z,99140
2023-04-15T07:51:00.735Z,99150
2023-04-15T07:52:00.454Z,99150
2023-04-15T07:53:00.440Z,99150
2023-04-15T07:54:00.416Z,99150
2023-04-15T07:55:00.401Z,99150
2023-04-15T07:56:00.508Z,99140
2023-04-15T07:57:00.424Z,99140
2023-04-15T07:58:00.400Z,99140
2023-04-15T07:59:00.734Z,99140
2023-04-15T08:00:00.876Z,99140
2023-04-15T08:01:00.411Z,99140
2023-04-15T08:02:00.522Z,99140
2023-04-15T08:03:00.776Z,99140
2023-04-15T08:04:00.580Z,99140
2023-04-15T08:05:00.446Z,99140
2023-04-15T08:06:00.409Z,99140
2023-04-15T08:07:00.395Z,99140
2023-04-15T08:08:00.429Z,99140
2023-04-15T08:09:00.708Z,99150
2023-04-15T08:10:00.401Z,99150
2023-04-15T08:11:00.458Z,99150
2023-04-15T08:12:00.435Z,99150
2023-04-15T08:13:00.466Z,99150
2023-04-15T08:14:00.692Z,99140
2023-04-15T08:15:00.545Z,99150
2023-04-15T08:16:20.361Z,99150
2023-04-15T08:17:00.407Z,99150
2023-04-15T08:18:00.504Z,99150
2023-04-15T08:19:00.745Z,99160
2023-04-15T08:20:00.425Z,99160
2023-04-15T08:21:00.418Z,99160
2023-04-15T08:22:00.495Z,99170
2023-04-15T08:23:00.432Z,99160
2023-04-15T08:24:00.465Z,99170
2023-04-15T08:25:00.454Z,99170
2023-04-15T08:26:00.425Z,99170
2023-04-15T08:27:00.404Z,99170
2023-04-15T08:28:03.579Z,99170
2023-04-15T08:29:00.749Z,99170
2023-04-15T08:30:02.095Z,99170
2023-04-15T08:31:00.501Z,99170
2023-04-15T08:32:00.729Z,99160
2023-04-15T08:33:00.515Z,99160
2023-04-15T08:34:00.505Z,99170
2023-04-15T08:35:00.593Z,99170
2023-04-15T08:36:00.534Z,99170
2023-04-15T08:37:00.434Z,99170
2023-04-15T08:38:00.432Z,99170
2023-04-15T08:39:00.684Z,99170
2023-04-15T08:40:00.436Z,99180
2023-04-15T08:41:06.252Z,99180
2023-04-15T08:42:02.083Z,99180
2023-04-15T08:43:03.896Z,99180
2023-04-15T08:44:03.686Z,99180
2023-04-15T08:45:03.922Z,99180
2023-04-15T08:46:02.005Z,99180
2023-04-15T08:47:01.223Z,99170
2023-04-15T08:48:03.837Z,99180
2023-04-15T08:49:03.346Z,99170
2023-04-15T08:50:02.871Z,99170
2023-04-15T08:51:00.732Z,99180
2023-04-15T08:52:02.196Z,99180
2023-04-15T08:53:00.866Z,99180
2023-04-15T08:54:01.366Z,99180
2023-04-15T08:55:01.822Z,99190
2023-04-15T08:56:03.517Z,99180
2023-04-15T08:57:00.674Z,99190
2023-04-15T08:58:01.699Z,99190
2023-04-15T08:59:01.190Z,99190
2023-04-15T09:00:03.755Z,99190
2023-04-15T09:01:00.516Z,99190
2023-04-15T09:02:01.596Z,99190
2023-04-15T09:03:00.893Z,99190
2023-04-15T09:04:02.184Z,99190
2023-04-15T09:05:00.409Z,99190
2023-04-15T09:06:03.818Z,99190
2023-04-15T09:07:00.399Z,99190
2023-04-15T09:08:01.186Z,99200
2023-04-15T09:09:00.624Z,99190
2023-04-15T09:10:00.482Z,99190
2023-04-15T09:11:01.085Z,99190
2023-04-15T09:12:00.520Z,99190
2023-04-15T09:13:00.929Z,99190
2023-04-15T09:14:00.654Z,99190
2023-04-15T09:15:01.303Z,99190
2023-04-15T09:16:01.583Z,99190
2023-04-15T09:17:02.132Z,99180
2023-04-15T09:18:00.489Z,99180
2023-04-15T09:19:11.981Z,99180
2023-04-15T09:20:08.626Z,99190
2023-04-15T09:21:06.551Z,99180
2023-04-15T09:22:01.209Z,99180
2023-04-15T09:23:11.184Z,99190
2023-04-15T09:24:01.131Z,99190
2023-04-15T09:25:00.435Z,99190
2023-04-15T09:26:01.043Z,99190
2023-04-15T09:27:00.434Z,99200
2023-04-15T09:28:01.125Z,99190
2023-04-15T09:29:06.843Z,99190
2023-04-15T09:30:00.410Z,99190
2023-04-15T09:31:01.405Z,99190
2023-04-15T09:32:10.980Z,99200
2023-04-15T09:33:02.215Z,99200
2023-04-15T09:34:00.905Z,99200
2023-04-15T09:35:10.302Z,99200
2023-04-15T09:36:02.633Z,99190
2023-04-15T09:37:00.671Z,99200
2023-04-15T09:38:03.743Z,99200
2023-04-15T09:39:00.447Z,99200
2023-04-15T09:40:00.412Z,99200
2023-04-15T09:41:00.436Z,99200
2023-04-15T09:42:05.808Z,99200
2023-04-15T09:43:01.710Z,99200
2023-04-15T09:44:00.816Z,99200
2023-04-15T09:45:10.751Z,99200
2023-04-15T09:46:00.536Z,99210
2023-04-15T09:47:00.452Z,99210
2023-04-15T09:48:15.060Z,99210
2023-04-15T09:49:09.108Z,99200
2023-04-15T09:50:00.753Z,99210
2023-04-15T09:51:00.744Z,99210
2023-04-15T09:52:05.673Z,99210
2023-04-15T09:53:02.642Z,99210
2023-04-15T09:54:00.639Z,99210
2023-04-15T09:55:00.491Z,99220
2023-04-15T09:56:01.429Z,99220
2023-04-15T09:57:04.867Z,99220
2023-04-15T09:58:00.395Z,99220
2023-04-15T09:59:00.437Z,99220
2023-04-15T10:00:00.415Z,99220
2023-04-15T10:01:03.642Z,99220
2023-04-15T10:02:03.497Z,99210
2023-04-15T10:03:00.660Z,99220
2023-04-15T10:04:04.606Z,99210
2023-04-15T10:05:01.472Z,99210
2023-04-15T10:06:01.170Z,99220
2023-04-15T10:07:02.328Z,99210
2023-04-15T10:08:00.468Z,99210
2023-04-15T10:09:00.529Z,99220
2023-04-15T10:10:00.957Z,99210
2023-04-15T10:11:02.783Z,99220
2023-04-15T10:12:01.148Z,99210
2023-04-15T10:13:00.413Z,99220
2023-04-15T10:14:01.304Z,99210
2023-04-15T10:15:03.892Z,99210
2023-04-15T10:16:10.919Z,99220
2023-04-15T10:17:03.358Z,99220
2023-04-15T10:18:01.676Z,99220
2023-04-15T10:19:01.448Z,99220
2023-04-15T10:20:01.169Z,99220
2023-04-15T10:21:01.260Z,99220
2023-04-15T10:22:00.490Z,99220
2023-04-15T10:23:00.885Z,99220
2023-04-15T10:24:02.549Z,99220
2023-04-15T10:25:01.788Z,99210
2023-04-15T10:26:03.020Z,99210
2023-04-15T10:27:02.227Z,99210
2023-04-15T10:28:00.910Z,99210
2023-04-15T10:29:01.284Z,99220
2023-04-15T10:30:00.597Z,99210
2023-04-15T10:31:00.883Z,99220
2023-04-15T10:32:01.531Z,99220
2023-04-15T10:33:02.543Z,99210
2023-04-15T10:34:01.012Z,99220
2023-04-15T10:35:01.126Z,99210
2023-04-15T10:36:01.031Z,99210
2023-04-15T10:37:01.736Z,99210
2023-04-15T10:38:00.407Z,99210
2023-04-15T10:39:00.462Z,99220
2023-04-15T10:40:00.602Z,99220
2023-04-15T10:41:13.646Z,99220
2023-04-15T10:42:09.559Z,99210
2023-04-15T10:43:01.872Z,99210
2023-04-15T10:44:02.894Z,99210
2023-04-15T10:45:00.505Z,99220
2023-04-15T10:46:00.422Z,99210
2023-04-15T10:47:00.665Z,99220
2023-04-15T10:48:03.582Z,99220
2023-04-15T10:49:06.221Z,99220
2023-04-15T10:50:01.030Z,99210
2023-04-15T10:51:00.596Z,99210
2023-04-15T10:52:01.261Z,99220
2023-04-15T10:53:02.858Z,99220
2023-04-15T10:54:00.599Z,99220
2023-04-15T10:55:10.168Z,99220
2023-04-15T10:56:00.404Z,99230
2023-04-15T10:57:00.388Z,99230
2023-04-15T10:58:01.412Z,99230
2023-04-15T10:59:00.425Z,99230
2023-04-15T11:00:08.915Z,99230
2023-04-15T11:01:00.973Z,99230
2023-04-15T11:02:03.405Z,99230
2023-04-15T11:03:08.806Z,99230
2023-04-15T11:04:00.565Z,99230
2023-04-15T11:05:00.420Z,99240
2023-04-15T11:06:00.518Z,99230
2023-04-15T11:07:07.560Z,99230
2023-04-15T11:08:00.416Z,99240
2023-04-15T11:09:00.524Z,99240
2023-04-15T11:10:00.641Z,99240
2023-04-15T11:11:00.430Z,99240
2023-04-15T11:12:04.380Z,99240
2023-04-15T11:13:05.195Z,99240
2023-04-15T11:14:01.729Z,99240
2023-04-15T11:15:20.321Z,99240
2023-04-15T11:16:01.454Z,99240
2023-04-15T11:17:00.864Z,99240
2023-04-15T11:18:10.440Z,99240
2023-04-15T11:19:00.443Z,99240
2023-04-15T11:20:00.508Z,99240
2023-04-15T11:21:02.046Z,99240
2023-04-15T11:22:09.088Z,99240
2023-04-15T11:23:14.222Z,99240
2023-04-15T11:24:02.118Z,99240
2023-04-15T11:25:00.440Z,99250
2023-04-15T11:26:02.671Z,99250
2023-04-15T11:27:00.923Z,99250
2023-04-15T11:28:01.600Z,99260
2023-04-15T11:29:00.452Z,99250
2023-04-15T11:30:00.484Z,99260
2023-04-15T11:31:06.141Z,99250
2023-04-15T11:32:07.792Z,99250
2023-04-15T11:33:02.714Z,99260
2023-04-15T11:34:01.774Z,99260
2023-04-15T11:35:00.408Z,99260
2023-04-15T11:36:01.343Z,99260
2023-04-15T11:37:03.195Z,99260
2023-04-15T11:38:03.414Z,99260
2023-04-15T11:39:00.489Z,99260
2023-04-15T11:40:01.709Z,99260
2023-04-15T11:41:00.462Z,99260
2023-04-15T11:42:00.395Z,99260
2023-04-15T11:43:14.513Z,99260
2023-04-15T11:44:00.412Z,99260
2023-04-15T11:45:11.502Z,99260
2023-04-15T11:46:01.985Z,99260
2023-04-15T11:47:00.419Z,99260
2023-04-15T11:48:09.321Z,99270
2023-04-15T11:49:00.436Z,99260
2023-04-15T11:50:14.187Z,99260
2023-04-15T11:51:03.443Z,99270
2023-04-15T11:52:00.419Z,99270
2023-04-15T11:53:03.061Z,99270
2023-04-15T11:54:00.468Z,99270
2023-04-15T11:55:02.943Z,99270
2023-04-15T11:56:00.436Z,99270
2023-04-15T11:57:00.522Z,99270
2023-04-15T11:58:11.381Z,99270
2023-04-15T11:59:00.413Z,99270
2023-04-15T12:00:00.471Z,99270
2023-04-15T12:01:00.497Z,99270
2023-04-15T12:02:10.169Z,99270
2023-04-15T12:03:11.106Z,99270
2023-04-15T12:04:00.814Z,99270
2023-04-15T12:05:02.481Z,99270
2023-04-15T12:06:12.743Z,99270
2023-04-15T12:07:04.156Z,99280
2023-04-15T12:08:00.423Z,99280
2023-04-15T12:09:15.324Z,99280
2023-04-15T12:10:02.190Z,99280
2023-04-15T12:11:00.457Z,99280
2023-04-15T12:12:00.454Z,99280
2023-04-15T12:13:00.503Z,99280
2023-04-15T12:14:06.045Z,99280
2023-04-15T12:15:00.451Z,99280
2023-04-15T12:16:02.395Z,99280
2023-04-15T12:17:03.995Z,99290
2023-04-15T12:18:00.499Z,99280
2023-04-15T12:19:08.334Z,99290
2023-04-15T12:20:00.408Z,99290
2023-04-15T12:21:07.733Z,99280
2023-04-15T12:22:01.813Z,99280
2023-04-15T12:23:07.652Z,99290
2023-04-15T12:24:02.502Z,99290
2023-04-15T12:25:00.396Z,99290
2023-04-15T12:26:03.977Z,99290
2023-04-15T12:27:02.813Z,99290
2023-04-15T12:28:00.398Z,99290
2023-04-15T12:29:03.696Z,99290
2023-04-15T12:30:03.979Z,99290
2023-04-15T12:31:05.836Z,99290
2023-04-15T12:32:06.264Z,99290
2023-04-15T12:33:02.114Z,99290
2023-04-15T12:34:00.681Z,99280
2023-04-15T12:35:00.429Z,99290
2023-04-15T12:36:00.505Z,99280
2023-04-15T12:37:02.703Z,99280
2023-04-15T12:38:00.422Z,99290
2023-04-15T12:39:00.941Z,99280
2023-04-15T12:40:00.396Z,99290
2023-04-15T12:41:00.423Z,99280
2023-04-15T12:42:00.740Z,99290
2023-04-15T12:43:00.415Z,99280
2023-04-15T12:44:00.457Z,99290
2023-04-15T12:45:00.420Z,99290
2023-04-15T12:46:00.463Z,99290
2023-04-15T12:47:00.650Z,99290
2023-04-15T12:48:00.476Z,99290
2023-04-15T12:49:00.409Z,99290
2023-04-15T12:50:00.403Z,99290
2023-04-15T12:51:00.407Z,99290
2023-04-15T12:52:01.614Z,99290